createdAt,value
2022-11-02T00:00:47.552Z,5.60
2022-11-02T00:03:14.265Z,6.40
2022-11-02T00:05:40.989Z,7.40
2022-11-02T00:08:07.573Z,5.50
2022-11-02T00:10:34.186Z,5.30
2022-11-02T00:13:00.935Z,5.10
2022-11-02T00:15:30.461Z,5.20
2022-11-02T00:18:01.211Z,5.70
2022-11-02T00:20:27.939Z,5.30
2022-11-02T00:22:56.377Z,7.50
2022-11-02T00:25:23.738Z,5.20
2022-11-02T00:27:50.321Z,5.80
2022-11-02T00:30:17.213Z,5.40
2022-11-02T00:32:43.787Z,5.30
2022-11-02T00:35:10.406Z,5.20
2022-11-02T00:37:37.256Z,5.30
2022-11-02T00:40:04.218Z,5.70
2022-11-02T00:42:30.785Z,5.60
2022-11-02T00:47:24.379Z,6.00
2022-11-02T00:49:50.950Z,5.40
2022-11-02T00:52:17.565Z,5.10
2022-11-02T00:59:38.140Z,5.30
2022-11-02T01:02:04.837Z,5.00
2022-11-02T01:04:31.497Z,5.20
2022-11-02T01:07:00.120Z,5.20
2022-11-02T01:09:26.697Z,4.50
2022-11-02T01:14:21.288Z,5.20
2022-11-02T01:16:47.994Z,4.90
2022-11-02T01:19:14.737Z,4.80
2022-11-02T01:21:41.324Z,3.80
2022-11-02T01:24:08.158Z,4.40
2022-11-02T01:26:34.783Z,4.80
2022-11-02T01:29:01.343Z,4.60
2022-11-02T01:31:27.914Z,4.50
2022-11-02T01:33:54.472Z,4.60
2022-11-02T01:38:54.746Z,4.30
2022-11-02T01:41:21.800Z,4.60
2022-11-02T01:43:49.937Z,4.60
2022-11-02T01:46:22.334Z,4.60
2022-11-02T01:48:50.897Z,4.70
2022-11-02T01:51:22.855Z,3.60
2022-11-02T01:53:51.417Z,4.70
2022-11-02T01:56:20.708Z,4.00
2022-11-02T01:58:51.657Z,4.60
2022-11-02T02:01:18.338Z,4.20
2022-11-02T02:03:45.995Z,4.50
2022-11-02T02:06:13.821Z,4.40
2022-11-02T02:08:45.329Z,3.90
2022-11-02T02:11:24.988Z,4.40
2022-11-02T02:16:21.004Z,4.20
2022-11-02T02:18:55.238Z,4.40
2022-11-02T02:21:34.234Z,4.70
2022-11-02T02:24:19.741Z,4.40
2022-11-02T02:26:52.358Z,4.70
2022-11-02T02:29:24.446Z,4.30
2022-11-02T02:37:52.507Z,4.40
2022-11-02T02:40:25.305Z,4.40
2022-11-02T02:42:57.150Z,4.40
2022-11-02T02:45:35.224Z,4.70
2022-11-02T02:48:04.876Z,4.40
2022-11-02T02:50:37.405Z,4.50
2022-11-02T02:53:05.424Z,4.80
2022-11-02T02:55:34.209Z,4.50
2022-11-02T02:58:02.499Z,4.60
2022-11-02T03:00:30.355Z,4.90
2022-11-02T03:03:01.030Z,4.60
2022-11-02T03:05:27.872Z,4.60
2022-11-02T03:07:55.092Z,4.80
2022-11-02T03:10:27.328Z,4.50
2022-11-02T03:13:12.629Z,4.50
2022-11-02T03:15:44.476Z,4.40
2022-11-02T05:07:11.880Z,5.10
2022-11-02T05:09:38.577Z,5.10
2022-11-02T05:12:05.277Z,4.70
2022-11-02T05:14:31.787Z,5.10
2022-11-02T06:31:09.094Z,5.40
2022-11-02T06:33:35.646Z,4.70
2022-11-02T06:36:02.197Z,5.10
2022-11-02T06:38:28.733Z,4.90
2022-11-02T06:41:00.193Z,4.40
2022-11-02T06:43:26.724Z,5.40
2022-11-02T06:45:57.036Z,4.60
2022-11-02T06:48:25.609Z,5.30
2022-11-02T06:50:53.228Z,5.10
2022-11-02T06:53:19.813Z,4.40
2022-11-02T06:58:13.340Z,6.20
2022-11-02T07:00:40.008Z,7.00
2022-11-02T07:03:07.532Z,6.40
2022-11-02T07:08:01.480Z,6.70
2022-11-02T07:10:28.632Z,6.60
2022-11-02T07:12:55.898Z,6.70
2022-11-02T07:15:23.398Z,6.60
2022-11-02T07:17:50.036Z,6.40
2022-11-02T07:20:16.633Z,7.90
2022-11-02T07:22:51.410Z,7.20
2022-11-02T07:25:17.980Z,6.70
2022-11-02T07:27:44.546Z,6.90
2022-11-02T07:30:11.217Z,8.90
2022-11-02T07:32:44.645Z,7.60
2022-11-02T07:35:12.443Z,7.60
2022-11-02T07:37:39.085Z,7.70
2022-11-02T07:40:06.327Z,7.80
2022-11-02T07:42:32.926Z,8.10
2022-11-02T07:44:59.506Z,8.10
2022-11-02T07:47:26.415Z,8.30
2022-11-02T07:49:53.049Z,8.60
2022-11-02T07:52:19.609Z,8.70
2022-11-02T07:54:46.229Z,8.80
2022-11-02T07:57:12.865Z,8.80
2022-11-02T07:59:39.480Z,9.00
2022-11-02T08:02:06.163Z,9.20
2022-11-02T08:04:33.264Z,9.30
2022-11-02T08:06:59.920Z,10.50
2022-11-02T08:09:26.849Z,8.80
2022-11-02T08:11:53.468Z,11.00
2022-11-02T08:14:20.029Z,11.00
2022-11-02T08:16:48.134Z,11.20
2022-11-02T08:19:14.758Z,9.90
2022-11-02T08:21:41.411Z,10.50
2022-11-02T08:24:08.068Z,10.70
2022-11-02T08:26:34.641Z,9.70
2022-11-02T08:29:01.989Z,9.70
2022-11-02T08:31:28.710Z,9.10
2022-11-02T08:41:17.373Z,10.70
2022-11-02T08:43:43.931Z,10.70
2022-11-02T08:46:15.231Z,10.60
2022-11-02T08:48:51.601Z,10.90
2022-11-02T08:51:18.264Z,11.00
2022-11-02T08:53:50.227Z,9.90
2022-11-02T08:56:17.974Z,10.70
2022-11-02T08:58:44.557Z,10.80
2022-11-02T09:01:11.276Z,13.00
2022-11-02T09:03:37.899Z,13.30
2022-11-02T09:06:04.492Z,11.30
2022-11-02T09:08:31.202Z,11.60
2022-11-02T09:10:59.582Z,13.00
2022-11-02T09:13:26.459Z,13.20
2022-11-02T09:15:53.972Z,12.20
2022-11-02T09:18:20.755Z,13.10
2022-11-02T09:20:48.932Z,12.30
2022-11-02T09:23:16.033Z,13.00
2022-11-02T09:25:42.721Z,13.20
2022-11-02T09:28:09.746Z,12.40
2022-11-02T09:30:36.736Z,12.10
2022-11-02T09:33:06.793Z,12.50
2022-11-02T09:35:35.067Z,12.60
2022-11-02T09:38:01.731Z,13.20
2022-11-02T09:40:30.139Z,13.10
2022-11-02T09:43:15.177Z,13.30
2022-11-02T09:46:01.498Z,12.50
2022-11-02T09:48:46.400Z,12.40
2022-11-02T09:51:14.969Z,12.40
2022-11-02T09:53:55.293Z,12.60
2022-11-02T09:56:21.930Z,12.60
2022-11-02T09:58:53.423Z,13.30
2022-11-02T10:01:34.735Z,12.70
2022-11-02T10:04:04.374Z,12.60
2022-11-02T10:06:31.745Z,12.60
2022-11-02T10:09:21.409Z,12.70
2022-11-02T10:11:54.525Z,12.70
2022-11-02T10:14:24.343Z,12.60
2022-11-02T10:17:03.277Z,12.50
2022-11-02T10:19:30.906Z,12.50
2022-11-02T10:21:58.279Z,12.60
2022-11-02T10:24:42.620Z,12.50
2022-11-02T10:27:18.892Z,12.60
2022-11-02T10:29:48.647Z,12.60
2022-11-02T10:32:16.152Z,12.60
2022-11-02T10:34:43.576Z,12.50
2022-11-02T10:37:19.114Z,12.10
2022-11-02T10:39:45.691Z,12.60
2022-11-02T10:42:29.721Z,12.60
2022-11-02T10:45:05.741Z,12.70
2022-11-02T10:47:58.677Z,13.10
2022-11-02T10:50:28.235Z,13.30
2022-11-02T10:52:54.815Z,13.70
2022-11-02T10:55:26.135Z,14.70
2022-11-02T10:57:54.932Z,14.00
2022-11-02T11:00:24.856Z,14.00
2022-11-02T11:03:06.961Z,13.80
2022-11-02T11:05:34.822Z,13.70
2022-11-02T11:08:02.366Z,14.40
2022-11-02T11:10:31.852Z,13.60
2022-11-02T11:12:58.721Z,13.80
2022-11-02T11:20:59.430Z,13.70
2022-11-02T11:23:26.299Z,13.80
2022-11-02T11:26:03.457Z,14.50
2022-11-02T11:28:42.296Z,14.20
2022-11-02T11:31:14.469Z,14.40
2022-11-02T11:33:45.887Z,14.50
2022-11-02T11:38:46.457Z,15.40
2022-11-02T11:41:13.302Z,15.00
2022-11-02T11:43:40.910Z,15.00
2022-11-02T11:46:08.193Z,15.00
2022-11-02T11:48:37.637Z,15.10
2022-11-02T11:51:05.072Z,15.30
2022-11-02T11:53:31.769Z,15.00
2022-11-02T11:55:59.854Z,14.90
2022-11-02T11:58:30.606Z,14.90
2022-11-02T12:01:12.568Z,15.00
2022-11-02T12:13:51.282Z,16.50
2022-11-02T12:16:20.948Z,16.60
2022-11-02T12:19:06.881Z,16.60
2022-11-02T12:21:42.717Z,15.70
2022-11-02T12:24:16.747Z,15.60
2022-11-02T12:26:46.446Z,15.90
2022-11-02T12:29:31.913Z,15.70
2022-11-02T12:34:30.745Z,16.10
2022-11-02T12:37:32.650Z,16.60
2022-11-02T12:39:47.022Z,17.20
2022-11-02T12:49:47.108Z,14.40
2022-11-02T12:52:32.347Z,14.20
2022-11-02T12:55:00.387Z,14.00
2022-11-02T12:57:33.249Z,14.10
2022-11-02T13:02:37.776Z,14.10
2022-11-02T13:05:04.531Z,15.10
2022-11-02T13:07:33.729Z,16.30
2022-11-02T13:10:15.897Z,16.80
2022-11-02T13:12:43.805Z,15.70
2022-11-02T13:15:15.595Z,18.50
2022-11-02T13:17:42.165Z,17.70
2022-11-02T13:20:14.566Z,17.20
2022-11-02T13:22:42.405Z,17.10
2022-11-02T13:25:15.390Z,18.40
2022-11-02T13:28:08.918Z,17.80
2022-11-02T13:30:36.371Z,18.80
2022-11-02T13:33:23.253Z,17.80
2022-11-02T13:35:51.677Z,18.20
2022-11-02T13:38:37.141Z,20.30
2022-11-02T13:41:10.027Z,20.40
2022-11-02T13:43:52.459Z,19.30
2022-11-02T13:46:28.237Z,19.00
2022-11-02T13:48:54.853Z,18.30
2022-11-02T14:23:25.256Z,21.50
2022-11-02T14:28:22.287Z,21.00
2022-11-02T14:30:58.343Z,20.70
2022-11-02T14:33:43.816Z,19.90
2022-11-02T14:36:21.844Z,20.00
2022-11-02T14:38:57.102Z,20.50
2022-11-02T14:41:42.418Z,20.60
2022-11-02T14:44:09.099Z,20.30
2022-11-02T14:46:57.698Z,20.10
2022-11-02T14:49:29.677Z,20.20
2022-11-02T14:52:04.863Z,21.30
2022-11-02T14:54:33.446Z,21.20
2022-11-02T14:57:05.717Z,21.30
2022-11-02T14:59:32.357Z,20.30
2022-11-02T15:02:04.407Z,19.70
2022-11-02T15:06:59.292Z,18.80
2022-11-02T15:09:55.233Z,18.40
2022-11-02T15:12:27.960Z,18.10
2022-11-02T15:14:55.710Z,17.10
2022-11-02T15:17:22.377Z,17.00
2022-11-02T15:19:53.710Z,16.40
2022-11-02T15:22:32.620Z,16.70
2022-11-02T15:25:08.474Z,16.70
2022-11-02T15:27:36.517Z,16.90
2022-11-02T15:30:05.498Z,16.70
2022-11-02T15:32:35.042Z,16.60
2022-11-02T15:35:02.304Z,16.70
2022-11-02T15:37:30.250Z,15.70
2022-11-02T15:42:33.217Z,14.80
2022-11-02T15:45:33.701Z,14.20
2022-11-02T15:48:01.846Z,13.70
2022-11-02T15:53:23.325Z,13.10
2022-11-02T15:55:51.989Z,12.80
2022-11-02T15:58:37.512Z,12.60
2022-11-02T16:01:24.672Z,12.10
2022-11-02T16:03:58.201Z,12.00
2022-11-02T16:06:26.729Z,12.30
2022-11-02T16:08:53.428Z,11.70
2022-11-02T16:11:20.121Z,12.50
2022-11-02T16:14:09.411Z,12.30
2022-11-02T16:16:45.434Z,12.00
2022-11-02T16:19:19.478Z,12.40
2022-11-02T16:21:46.504Z,11.30
2022-11-02T16:24:13.358Z,11.90
2022-11-02T16:26:42.111Z,12.10
2022-11-02T16:29:09.788Z,10.60
2022-11-02T16:31:36.707Z,10.30
2022-11-02T16:34:09.365Z,10.30
2022-11-02T16:36:36.616Z,10.30
2022-11-02T16:39:03.498Z,9.40
2022-11-02T16:41:31.096Z,10.30
2022-11-02T16:44:00.086Z,11.40
2022-11-02T16:46:31.349Z,10.10
2022-11-02T16:49:18.736Z,10.00
2022-11-02T16:51:52.944Z,12.20
2022-11-02T16:59:19.337Z,9.50
2022-11-02T17:01:46.253Z,9.10
2022-11-02T17:04:23.308Z,8.90
2022-11-02T17:06:51.842Z,9.00
2022-11-02T17:09:38.712Z,9.00
2022-11-02T17:12:15.523Z,9.00
2022-11-02T17:14:43.587Z,8.90
2022-11-02T17:17:22.413Z,8.60
2022-11-02T17:19:56.183Z,8.60
2022-11-02T17:22:24.842Z,8.50
2022-11-02T17:25:17.840Z,9.40
2022-11-02T17:27:44.495Z,8.00
2022-11-02T17:30:29.663Z,7.80
2022-11-02T17:33:00.603Z,8.20
2022-11-02T17:35:27.820Z,8.20
2022-11-02T17:37:54.605Z,9.40
2022-11-02T17:40:22.048Z,10.20
2022-11-02T17:43:02.072Z,7.80
2022-11-02T17:45:38.927Z,7.90
2022-11-02T17:50:36.808Z,7.90
2022-11-02T17:53:04.304Z,7.90
2022-11-02T17:55:32.268Z,9.20
2022-11-02T17:57:59.117Z,9.10
2022-11-02T18:00:27.286Z,8.10
2022-11-02T18:02:55.263Z,9.10
2022-11-02T18:05:23.366Z,8.80
2022-11-02T18:07:50.142Z,7.60
2022-11-02T18:10:17.173Z,7.40
2022-11-02T18:12:44.316Z,8.10
2022-11-02T18:15:14.265Z,7.40
2022-11-02T18:17:40.899Z,7.40
2022-11-02T18:20:08.662Z,7.20
2022-11-02T18:22:35.305Z,7.20
2022-11-02T18:25:01.967Z,7.90
2022-11-02T18:27:28.908Z,7.40
2022-11-02T18:29:55.614Z,7.00
2022-11-02T18:32:22.241Z,7.00
2022-11-02T18:34:48.909Z,6.90
2022-11-02T18:37:15.550Z,6.80
2022-11-02T18:39:42.198Z,6.70
2022-11-02T18:42:08.854Z,6.90
2022-11-02T18:44:35.781Z,6.80
2022-11-02T18:47:02.449Z,6.80
2022-11-02T18:49:29.146Z,6.70
2022-11-02T18:51:55.770Z,6.70
2022-11-02T18:54:22.458Z,6.60
2022-11-02T18:56:49.116Z,6.60
2022-11-02T18:59:15.832Z,6.40
2022-11-02T19:01:42.641Z,7.00
2022-11-02T19:04:15.978Z,6.90
2022-11-02T19:07:02.598Z,7.50
2022-11-02T19:09:31.603Z,6.40
2022-11-02T19:12:03.802Z,6.30
2022-11-02T19:14:38.183Z,6.30
2022-11-02T19:17:05.571Z,6.10
2022-11-02T19:19:32.641Z,6.10
2022-11-02T19:21:59.314Z,6.50
2022-11-02T19:24:25.967Z,6.00
2022-11-02T19:26:52.708Z,7.00
2022-11-02T19:29:19.634Z,5.30
2022-11-02T19:31:46.365Z,5.70
2022-11-02T19:34:13.273Z,7.00
2022-11-02T19:36:39.923Z,5.90
2022-11-02T19:39:09.794Z,5.70
2022-11-02T19:41:37.071Z,5.90
2022-11-02T19:44:03.733Z,6.00
2022-11-02T19:46:30.438Z,6.00
2022-11-02T19:48:58.140Z,5.90
2022-11-02T19:51:26.455Z,5.70
2022-11-02T19:58:48.618Z,5.60
2022-11-02T21:45:04.726Z,3.70
2022-11-02T21:47:34.307Z,3.60
2022-11-02T21:50:01.861Z,3.80
2022-11-02T21:52:28.749Z,3.40
2022-11-02T21:54:55.413Z,3.20
2022-11-02T21:57:22.082Z,3.60
2022-11-02T21:59:48.693Z,3.30
2022-11-02T22:02:15.516Z,3.50
2022-11-02T22:04:42.284Z,3.70
2022-11-02T22:12:21.675Z,3.60
2022-11-02T22:14:48.342Z,3.60
2022-11-02T22:17:16.860Z,3.60
2022-11-02T22:52:03.105Z,3.50
